Mount Isa, Australia
Current Conditions -  °F | °C
As of 11:00 PM on Saturday 22 Nov 2014 (Local Time) from YBMA Reporting Station
Clear Clear  
Wind Chill: 82°   Ceiling: Unl
Heat Index: 83°   Visibility: 6mi
Dew Point: 63°   Wind: 0mph
Humidity: 51%   Direction: NA
Pressure: 29.88"   Gusts: NA
Location:  20.73°S, 139.49°E
Report Text: YBMA 221300Z AUTO 00000KT 9999 // NCD 28/17 Q1012
Loading
Personal Weather Stations






























Interactive Weather Map New forecast layout! Learn more

10-Day Weather Forecast

Advertisements
Track Severe Weather on mobile